Ana Sayfa
METAR-TAF:

METAR-TAF

Havaalanları :

Taunton Municipal Airport (King Field)

Taunton, Massachusetts, Amerika Birleşik Devletleri

Enlem: 41-52-32N, Boylam: 071-01-16W, yükseklik: 13 m

Güncel hava durumu gözlemi

Rapor saat 08:52 UTC de 38 dakika önce yapıldı.
Rüzgar değişken yönden 4 kt
Sıcaklık 9°C
Nem 93%
Basınç 1025 hPa
Görüş mesafesi: 8.0 km
300 ft yükseklikte çok bulutlu
Pus

METAR: KTAN 250852Z AUTO VRB04KT 5SM BR OVC003 09/08 A3026 RMK AO2 RAB12E27 SLP245 P0001 60001 T00940083 53001

Saat: 05:30 (09:30 UTC)


TAF: eksik

4.000'den fazla havaalanı için hava durumu gözlemleri ve tahminleri (METAR ve TAF raporları).

Kullanılabilir istasyonlar harita üzerinde sarı ve kırmızı noktalarla gösterilir.

İstasyonun adını görmek için fareyi noktanın üzerinde gezdirin.

Sonrasında hava gözlem ve tahminlerini görmek için tıklayın.

Haritayı değiştirmek için: yaklaştırmak için siyah artı işaretli yeşil düğmeye ve uzaklaştırmak için de eksi işaretli düğmeye hızla tıklayın; bitişik haritalar için yeşil okları kullanın.


METAR-TAF: